sensor_id;sensor_type;location;lat;lon;timestamp;P1;durP1;ratioP1;P2;durP2;ratioP2
34876;SDS011;21086;44.780;17.194;2024-01-07T00:00:18;25.75;;;14.93;;
34876;SDS011;21086;44.780;17.194;2024-01-07T00:02:45;25.00;;;15.70;;
34876;SDS011;21086;44.780;17.194;2024-01-07T00:05:13;22.25;;;14.32;;
34876;SDS011;21086;44.780;17.194;2024-01-07T00:07:40;23.98;;;14.77;;
34876;SDS011;21086;44.780;17.194;2024-01-07T00:10:07;25.08;;;14.80;;
34876;SDS011;21086;44.780;17.194;2024-01-07T00:12:35;21.88;;;15.27;;
34876;SDS011;21086;44.780;17.194;2024-01-07T00:15:02;20.30;;;15.10;;
34876;SDS011;21086;44.780;17.194;2024-01-07T00:17:29;23.10;;;15.55;;
34876;SDS011;21086;44.780;17.194;2024-01-07T00:19:56;26.58;;;15.73;;
34876;SDS011;21086;44.780;17.194;2024-01-07T00:22:23;21.27;;;14.63;;
34876;SDS011;21086;44.780;17.194;2024-01-07T00:24:51;20.48;;;13.85;;
34876;SDS011;21086;44.780;17.194;2024-01-07T00:27:18;20.85;;;12.13;;
34876;SDS011;21086;44.780;17.194;2024-01-07T00:29:45;18.48;;;11.95;;
34876;SDS011;21086;44.780;17.194;2024-01-07T00:32:12;21.05;;;11.93;;
34876;SDS011;21086;44.780;17.194;2024-01-07T00:34:39;18.58;;;12.88;;
34876;SDS011;21086;44.780;17.194;2024-01-07T00:37:06;21.45;;;14.30;;
34876;SDS011;21086;44.780;17.194;2024-01-07T00:39:33;22.80;;;15.18;;
34876;SDS011;21086;44.780;17.194;2024-01-07T00:42:01;29.38;;;18.40;;
34876;SDS011;21086;44.780;17.194;2024-01-07T00:44:28;27.23;;;17.98;;
34876;SDS011;21086;44.780;17.194;2024-01-07T00:46:55;28.02;;;17.48;;
34876;SDS011;21086;44.780;17.194;2024-01-07T00:49:22;25.85;;;16.63;;
34876;SDS011;21086;44.780;17.194;2024-01-07T00:51:49;23.95;;;15.93;;
34876;SDS011;21086;44.780;17.194;2024-01-07T00:54:16;20.73;;;12.90;;
34876;SDS011;21086;44.780;17.194;2024-01-07T00:56:43;20.25;;;13.27;;
34876;SDS011;21086;44.780;17.194;2024-01-07T00:59:11;22.95;;;13.95;;
34876;SDS011;21086;44.780;17.194;2024-01-07T01:01:38;20.67;;;13.50;;
34876;SDS011;21086;44.780;17.194;2024-01-07T01:04:05;22.20;;;14.38;;
34876;SDS011;21086;44.780;17.194;2024-01-07T01:06:32;21.55;;;13.05;;
34876;SDS011;21086;44.780;17.194;2024-01-07T01:08:59;18.95;;;12.85;;
34876;SDS011;21086;44.780;17.194;2024-01-07T01:11:26;20.95;;;13.55;;
34876;SDS011;21086;44.780;17.194;2024-01-07T01:13:53;19.95;;;12.35;;
34876;SDS011;21086;44.780;17.194;2024-01-07T01:16:20;18.67;;;13.25;;
34876;SDS011;21086;44.780;17.194;2024-01-07T01:18:50;21.15;;;13.80;;
34876;SDS011;21086;44.780;17.194;2024-01-07T01:21:18;23.13;;;13.25;;
34876;SDS011;21086;44.780;17.194;2024-01-07T01:23:45;24.52;;;12.82;;
34876;SDS011;21086;44.780;17.194;2024-01-07T01:26:13;17.65;;;11.50;;
34876;SDS011;21086;44.780;17.194;2024-01-07T01:28:40;19.50;;;11.35;;
34876;SDS011;21086;44.780;17.194;2024-01-07T01:31:07;20.20;;;11.50;;
34876;SDS011;21086;44.780;17.194;2024-01-07T01:33:34;19.35;;;11.13;;
34876;SDS011;21086;44.780;17.194;2024-01-07T01:36:04;19.83;;;11.68;;
34876;SDS011;21086;44.780;17.194;2024-01-07T01:38:32;18.48;;;11.20;;
34876;SDS011;21086;44.780;17.194;2024-01-07T01:40:59;17.15;;;10.85;;
34876;SDS011;21086;44.780;17.194;2024-01-07T01:43:26;17.02;;;11.10;;
34876;SDS011;21086;44.780;17.194;2024-01-07T01:45:54;17.92;;;11.98;;
34876;SDS011;21086;44.780;17.194;2024-01-07T01:48:22;15.40;;;11.18;;
34876;SDS011;21086;44.780;17.194;2024-01-07T01:50:50;24.58;;;14.32;;
34876;SDS011;21086;44.780;17.194;2024-01-07T01:53:20;20.50;;;13.55;;
34876;SDS011;21086;44.780;17.194;2024-01-07T01:55:47;25.13;;;13.50;;
34876;SDS011;21086;44.780;17.194;2024-01-07T01:58:14;21.55;;;12.10;;
34876;SDS011;21086;44.780;17.194;2024-01-07T02:00:45;18.23;;;12.52;;
34876;SDS011;21086;44.780;17.194;2024-01-07T02:03:12;17.23;;;11.70;;
34876;SDS011;21086;44.780;17.194;2024-01-07T02:05:40;18.73;;;11.18;;
34876;SDS011;21086;44.780;17.194;2024-01-07T02:08:07;16.50;;;11.02;;
34876;SDS011;21086;44.780;17.194;2024-01-07T02:10:34;19.00;;;11.60;;
34876;SDS011;21086;44.780;17.194;2024-01-07T02:13:06;19.83;;;11.40;;
34876;SDS011;21086;44.780;17.194;2024-01-07T02:15:33;17.63;;;9.68;;
34876;SDS011;21086;44.780;17.194;2024-01-07T02:18:00;15.45;;;10.05;;
34876;SDS011;21086;44.780;17.194;2024-01-07T02:20:28;15.63;;;10.20;;
34876;SDS011;21086;44.780;17.194;2024-01-07T02:22:55;10.43;;;7.45;;
34876;SDS011;21086;44.780;17.194;2024-01-07T02:25:25;10.15;;;6.60;;
34876;SDS011;21086;44.780;17.194;2024-01-07T02:27:52;10.07;;;6.75;;
34876;SDS011;21086;44.780;17.194;2024-01-07T02:30:19;10.27;;;6.80;;
34876;SDS011;21086;44.780;17.194;2024-01-07T02:32:46;10.38;;;6.78;;
34876;SDS011;21086;44.780;17.194;2024-01-07T02:35:14;9.05;;;6.90;;
34876;SDS011;21086;44.780;17.194;2024-01-07T02:37:41;9.27;;;6.55;;
34876;SDS011;21086;44.780;17.194;2024-01-07T02:40:08;9.77;;;7.10;;
34876;SDS011;21086;44.780;17.194;2024-01-07T02:42:36;9.95;;;6.65;;
34876;SDS011;21086;44.780;17.194;2024-01-07T02:45:03;9.65;;;6.50;;
34876;SDS011;21086;44.780;17.194;2024-01-07T02:47:30;9.70;;;6.40;;
34876;SDS011;21086;44.780;17.194;2024-01-07T02:49:57;10.95;;;6.35;;
34876;SDS011;21086;44.780;17.194;2024-01-07T02:52:24;10.27;;;6.40;;
34876;SDS011;21086;44.780;17.194;2024-01-07T02:54:51;8.57;;;5.68;;
34876;SDS011;21086;44.780;17.194;2024-01-07T02:59:45;8.23;;;5.75;;
34876;SDS011;21086;44.780;17.194;2024-01-07T03:04:48;6.97;;;4.85;;
34876;SDS011;21086;44.780;17.194;2024-01-07T03:07:14;7.63;;;5.18;;
34876;SDS011;21086;44.780;17.194;2024-01-07T03:09:41;6.22;;;4.43;;
34876;SDS011;21086;44.780;17.194;2024-01-07T03:12:11;8.25;;;5.25;;
34876;SDS011;21086;44.780;17.194;2024-01-07T03:14:38;10.70;;;5.47;;
34876;SDS011;21086;44.780;17.194;2024-01-07T03:17:07;6.47;;;4.70;;
34876;SDS011;21086;44.780;17.194;2024-01-07T03:19:35;7.20;;;4.55;;
34876;SDS011;21086;44.780;17.194;2024-01-07T03:22:04;6.22;;;4.32;;
34876;SDS011;21086;44.780;17.194;2024-01-07T03:24:33;7.40;;;4.30;;
34876;SDS011;21086;44.780;17.194;2024-01-07T03:27:00;6.28;;;4.30;;
34876;SDS011;21086;44.780;17.194;2024-01-07T03:29:27;5.47;;;3.65;;
34876;SDS011;21086;44.780;17.194;2024-01-07T03:31:54;5.10;;;3.50;;
34876;SDS011;21086;44.780;17.194;2024-01-07T03:34:21;5.72;;;3.25;;
34876;SDS011;21086;44.780;17.194;2024-01-07T03:36:49;3.97;;;2.65;;
34876;SDS011;21086;44.780;17.194;2024-01-07T03:39:16;3.95;;;2.70;;
34876;SDS011;21086;44.780;17.194;2024-01-07T03:41:42;3.45;;;2.42;;
34876;SDS011;21086;44.780;17.194;2024-01-07T03:44:10;4.40;;;2.65;;
34876;SDS011;21086;44.780;17.194;2024-01-07T03:46:37;4.90;;;3.03;;
34876;SDS011;21086;44.780;17.194;2024-01-07T03:49:04;5.97;;;3.28;;
34876;SDS011;21086;44.780;17.194;2024-01-07T03:51:31;7.22;;;3.67;;
34876;SDS011;21086;44.780;17.194;2024-01-07T03:53:58;6.53;;;3.42;;
34876;SDS011;21086;44.780;17.194;2024-01-07T03:56:25;6.30;;;2.97;;
34876;SDS011;21086;44.780;17.194;2024-01-07T03:58:52;4.70;;;3.00;;
34876;SDS011;21086;44.780;17.194;2024-01-07T04:01:19;4.43;;;2.60;;
34876;SDS011;21086;44.780;17.194;2024-01-07T04:03:46;6.18;;;2.70;;
34876;SDS011;21086;44.780;17.194;2024-01-07T04:06:14;4.57;;;2.90;;
34876;SDS011;21086;44.780;17.194;2024-01-07T04:08:41;4.78;;;3.00;;
34876;SDS011;21086;44.780;17.194;2024-01-07T04:11:08;3.67;;;2.45;;
34876;SDS011;21086;44.780;17.194;2024-01-07T04:13:34;5.57;;;2.88;;
34876;SDS011;21086;44.780;17.194;2024-01-07T04:16:02;3.72;;;2.45;;
34876;SDS011;21086;44.780;17.194;2024-01-07T04:21:25;3.67;;;2.50;;
34876;SDS011;21086;44.780;17.194;2024-01-07T04:23:53;2.95;;;1.88;;
34876;SDS011;21086;44.780;17.194;2024-01-07T04:29:05;3.45;;;2.10;;
34876;SDS011;21086;44.780;17.194;2024-01-07T04:31:33;5.10;;;2.95;;
34876;SDS011;21086;44.780;17.194;2024-01-07T04:34:00;4.53;;;2.50;;
34876;SDS011;21086;44.780;17.194;2024-01-07T04:36:27;3.05;;;2.13;;
34876;SDS011;21086;44.780;17.194;2024-01-07T04:38:54;4.25;;;2.47;;
34876;SDS011;21086;44.780;17.194;2024-01-07T04:41:21;4.35;;;3.28;;
34876;SDS011;21086;44.780;17.194;2024-01-07T04:43:50;8.88;;;4.95;;
34876;SDS011;21086;44.780;17.194;2024-01-07T04:46:17;4.50;;;2.55;;
34876;SDS011;21086;44.780;17.194;2024-01-07T04:48:44;4.35;;;2.60;;
34876;SDS011;21086;44.780;17.194;2024-01-07T04:51:11;3.53;;;2.50;;
34876;SDS011;21086;44.780;17.194;2024-01-07T04:53:38;4.40;;;2.30;;
34876;SDS011;21086;44.780;17.194;2024-01-07T04:56:05;3.33;;;2.22;;
34876;SDS011;21086;44.780;17.194;2024-01-07T04:58:32;3.92;;;2.28;;
34876;SDS011;21086;44.780;17.194;2024-01-07T05:00:59;4.07;;;2.45;;
34876;SDS011;21086;44.780;17.194;2024-01-07T05:03:26;3.50;;;2.08;;
34876;SDS011;21086;44.780;17.194;2024-01-07T05:13:59;3.65;;;1.70;;
34876;SDS011;21086;44.780;17.194;2024-01-07T05:16:27;4.60;;;2.70;;
34876;SDS011;21086;44.780;17.194;2024-01-07T05:18:54;2.63;;;1.50;;
34876;SDS011;21086;44.780;17.194;2024-01-07T05:21:21;3.08;;;1.98;;
34876;SDS011;21086;44.780;17.194;2024-01-07T05:23:48;2.55;;;1.40;;
34876;SDS011;21086;44.780;17.194;2024-01-07T05:28:51;2.45;;;1.60;;
34876;SDS011;21086;44.780;17.194;2024-01-07T05:31:18;2.55;;;1.80;;
34876;SDS011;21086;44.780;17.194;2024-01-07T05:33:45;2.13;;;1.50;;
34876;SDS011;21086;44.780;17.194;2024-01-07T05:36:13;2.63;;;1.40;;
34876;SDS011;21086;44.780;17.194;2024-01-07T05:38:43;2.90;;;1.80;;
34876;SDS011;21086;44.780;17.194;2024-01-07T05:41:10;4.57;;;2.40;;
34876;SDS011;21086;44.780;17.194;2024-01-07T05:43:37;4.68;;;2.17;;
34876;SDS011;21086;44.780;17.194;2024-01-07T05:46:04;2.60;;;1.80;;
34876;SDS011;21086;44.780;17.194;2024-01-07T05:51:07;4.10;;;2.30;;
34876;SDS011;21086;44.780;17.194;2024-01-07T05:53:35;4.57;;;2.92;;
34876;SDS011;21086;44.780;17.194;2024-01-07T05:56:02;4.75;;;2.70;;
34876;SDS011;21086;44.780;17.194;2024-01-07T05:58:29;6.10;;;4.57;;
34876;SDS011;21086;44.780;17.194;2024-01-07T06:00:56;6.35;;;4.47;;
34876;SDS011;21086;44.780;17.194;2024-01-07T06:03:24;6.32;;;4.60;;
34876;SDS011;21086;44.780;17.194;2024-01-07T06:05:51;7.45;;;3.58;;
34876;SDS011;21086;44.780;17.194;2024-01-07T06:08:18;6.97;;;4.82;;
34876;SDS011;21086;44.780;17.194;2024-01-07T06:13:30;7.40;;;4.07;;
34876;SDS011;21086;44.780;17.194;2024-01-07T06:15:57;5.72;;;3.90;;
34876;SDS011;21086;44.780;17.194;2024-01-07T06:18:24;9.68;;;4.82;;
34876;SDS011;21086;44.780;17.194;2024-01-07T06:20:51;9.88;;;5.32;;
34876;SDS011;21086;44.780;17.194;2024-01-07T06:23:18;8.18;;;4.90;;
34876;SDS011;21086;44.780;17.194;2024-01-07T06:25:45;13.98;;;7.68;;
34876;SDS011;21086;44.780;17.194;2024-01-07T06:28:12;10.00;;;4.90;;
34876;SDS011;21086;44.780;17.194;2024-01-07T06:30:39;7.10;;;3.75;;
34876;SDS011;21086;44.780;17.194;2024-01-07T06:33:06;5.90;;;3.22;;
34876;SDS011;21086;44.780;17.194;2024-01-07T06:35:33;6.45;;;3.30;;
34876;SDS011;21086;44.780;17.194;2024-01-07T06:38:00;7.03;;;4.05;;
34876;SDS011;21086;44.780;17.194;2024-01-07T06:40:27;9.50;;;6.32;;
34876;SDS011;21086;44.780;17.194;2024-01-07T06:42:54;4.43;;;2.90;;
34876;SDS011;21086;44.780;17.194;2024-01-07T06:45:22;5.72;;;3.70;;
34876;SDS011;21086;44.780;17.194;2024-01-07T06:47:49;6.72;;;4.57;;
34876;SDS011;21086;44.780;17.194;2024-01-07T06:50:16;7.22;;;4.05;;
34876;SDS011;21086;44.780;17.194;2024-01-07T06:52:46;8.77;;;4.00;;
34876;SDS011;21086;44.780;17.194;2024-01-07T06:55:13;4.57;;;3.05;;
34876;SDS011;21086;44.780;17.194;2024-01-07T06:57:40;6.82;;;4.00;;
34876;SDS011;21086;44.780;17.194;2024-01-07T07:00:07;6.60;;;3.38;;
34876;SDS011;21086;44.780;17.194;2024-01-07T07:02:36;5.57;;;3.17;;
34876;SDS011;21086;44.780;17.194;2024-01-07T07:05:03;7.75;;;4.43;;
34876;SDS011;21086;44.780;17.194;2024-01-07T07:07:30;9.38;;;5.95;;
34876;SDS011;21086;44.780;17.194;2024-01-07T07:09:57;7.43;;;4.28;;
34876;SDS011;21086;44.780;17.194;2024-01-07T07:12:24;6.43;;;3.58;;
34876;SDS011;21086;44.780;17.194;2024-01-07T07:14:51;6.15;;;3.85;;
34876;SDS011;21086;44.780;17.194;2024-01-07T07:17:18;5.00;;;2.95;;
34876;SDS011;21086;44.780;17.194;2024-01-07T07:19:45;5.93;;;3.92;;
34876;SDS011;21086;44.780;17.194;2024-01-07T07:22:12;7.03;;;4.35;;
34876;SDS011;21086;44.780;17.194;2024-01-07T07:24:42;6.93;;;4.10;;
34876;SDS011;21086;44.780;17.194;2024-01-07T07:27:09;10.23;;;5.85;;
34876;SDS011;21086;44.780;17.194;2024-01-07T07:29:36;10.25;;;5.28;;
34876;SDS011;21086;44.780;17.194;2024-01-07T07:32:03;7.60;;;4.40;;
34876;SDS011;21086;44.780;17.194;2024-01-07T07:34:30;9.80;;;5.40;;
34876;SDS011;21086;44.780;17.194;2024-01-07T07:36:58;9.57;;;6.35;;
34876;SDS011;21086;44.780;17.194;2024-01-07T07:39:25;11.45;;;7.50;;
34876;SDS011;21086;44.780;17.194;2024-01-07T07:41:52;9.40;;;6.25;;
34876;SDS011;21086;44.780;17.194;2024-01-07T07:44:19;12.27;;;7.63;;
34876;SDS011;21086;44.780;17.194;2024-01-07T07:49:29;13.38;;;7.53;;
34876;SDS011;21086;44.780;17.194;2024-01-07T07:51:56;15.57;;;9.55;;
34876;SDS011;21086;44.780;17.194;2024-01-07T07:54:23;18.30;;;10.70;;
34876;SDS011;21086;44.780;17.194;2024-01-07T07:56:50;22.42;;;13.93;;
34876;SDS011;21086;44.780;17.194;2024-01-07T07:59:17;20.58;;;13.18;;
34876;SDS011;21086;44.780;17.194;2024-01-07T08:01:45;18.88;;;12.05;;
34876;SDS011;21086;44.780;17.194;2024-01-07T08:04:12;20.63;;;12.77;;
34876;SDS011;21086;44.780;17.194;2024-01-07T08:06:40;33.40;;;15.27;;
34876;SDS011;21086;44.780;17.194;2024-01-07T08:09:09;29.05;;;15.38;;
34876;SDS011;21086;44.780;17.194;2024-01-07T08:11:36;9.75;;;6.72;;
34876;SDS011;21086;44.780;17.194;2024-01-07T08:14:05;15.32;;;8.10;;
34876;SDS011;21086;44.780;17.194;2024-01-07T08:16:33;15.40;;;9.13;;
34876;SDS011;21086;44.780;17.194;2024-01-07T08:19:00;17.08;;;10.18;;
34876;SDS011;21086;44.780;17.194;2024-01-07T08:21:27;24.38;;;13.52;;
34876;SDS011;21086;44.780;17.194;2024-01-07T08:23:54;21.48;;;11.60;;
34876;SDS011;21086;44.780;17.194;2024-01-07T08:26:21;28.50;;;16.40;;
34876;SDS011;21086;44.780;17.194;2024-01-07T08:28:49;19.65;;;10.65;;
34876;SDS011;21086;44.780;17.194;2024-01-07T08:31:16;27.50;;;13.35;;
34876;SDS011;21086;44.780;17.194;2024-01-07T08:33:43;20.77;;;11.32;;
34876;SDS011;21086;44.780;17.194;2024-01-07T08:36:10;11.60;;;6.70;;
34876;SDS011;21086;44.780;17.194;2024-01-07T08:38:37;9.90;;;7.28;;
34876;SDS011;21086;44.780;17.194;2024-01-07T08:41:04;11.73;;;6.93;;
34876;SDS011;21086;44.780;17.194;2024-01-07T08:46:07;9.85;;;4.78;;
34876;SDS011;21086;44.780;17.194;2024-01-07T08:48:34;16.80;;;9.52;;
34876;SDS011;21086;44.780;17.194;2024-01-07T08:51:01;13.02;;;8.23;;
34876;SDS011;21086;44.780;17.194;2024-01-07T08:53:29;12.43;;;7.20;;
34876;SDS011;21086;44.780;17.194;2024-01-07T08:55:57;20.50;;;11.35;;
34876;SDS011;21086;44.780;17.194;2024-01-07T08:58:24;15.57;;;8.82;;
34876;SDS011;21086;44.780;17.194;2024-01-07T09:00:52;10.18;;;6.60;;
34876;SDS011;21086;44.780;17.194;2024-01-07T09:03:19;13.98;;;8.43;;
34876;SDS011;21086;44.780;17.194;2024-01-07T09:05:46;12.30;;;7.97;;
34876;SDS011;21086;44.780;17.194;2024-01-07T09:08:13;12.38;;;8.05;;
34876;SDS011;21086;44.780;17.194;2024-01-07T09:10:41;8.88;;;6.10;;
34876;SDS011;21086;44.780;17.194;2024-01-07T09:13:08;11.15;;;7.55;;
34876;SDS011;21086;44.780;17.194;2024-01-07T09:15:35;10.95;;;7.05;;
34876;SDS011;21086;44.780;17.194;2024-01-07T09:18:02;9.93;;;5.18;;
34876;SDS011;21086;44.780;17.194;2024-01-07T09:20:29;7.93;;;4.50;;
34876;SDS011;21086;44.780;17.194;2024-01-07T09:22:56;10.93;;;5.75;;
34876;SDS011;21086;44.780;17.194;2024-01-07T09:25:23;15.00;;;9.45;;
34876;SDS011;21086;44.780;17.194;2024-01-07T09:27:50;10.75;;;6.63;;
34876;SDS011;21086;44.780;17.194;2024-01-07T09:30:18;13.32;;;7.22;;
34876;SDS011;21086;44.780;17.194;2024-01-07T09:32:45;10.48;;;5.85;;
34876;SDS011;21086;44.780;17.194;2024-01-07T09:35:12;12.93;;;7.47;;
34876;SDS011;21086;44.780;17.194;2024-01-07T09:37:39;16.08;;;9.60;;
34876;SDS011;21086;44.780;17.194;2024-01-07T09:40:06;10.32;;;6.32;;
34876;SDS011;21086;44.780;17.194;2024-01-07T09:42:33;13.05;;;6.60;;
34876;SDS011;21086;44.780;17.194;2024-01-07T09:45:04;13.55;;;7.88;;
34876;SDS011;21086;44.780;17.194;2024-01-07T09:47:31;11.77;;;6.80;;
34876;SDS011;21086;44.780;17.194;2024-01-07T09:49:59;10.88;;;6.43;;
34876;SDS011;21086;44.780;17.194;2024-01-07T09:52:26;11.82;;;7.07;;
34876;SDS011;21086;44.780;17.194;2024-01-07T09:54:56;14.88;;;8.13;;
34876;SDS011;21086;44.780;17.194;2024-01-07T09:57:28;15.25;;;8.13;;
34876;SDS011;21086;44.780;17.194;2024-01-07T09:59:55;21.33;;;12.07;;
34876;SDS011;21086;44.780;17.194;2024-01-07T10:02:22;15.05;;;8.65;;
34876;SDS011;21086;44.780;17.194;2024-01-07T10:04:49;8.48;;;4.25;;
34876;SDS011;21086;44.780;17.194;2024-01-07T10:07:17;9.15;;;5.03;;
34876;SDS011;21086;44.780;17.194;2024-01-07T10:09:44;11.40;;;6.25;;
34876;SDS011;21086;44.780;17.194;2024-01-07T10:12:12;10.00;;;5.30;;
34876;SDS011;21086;44.780;17.194;2024-01-07T10:14:39;8.90;;;4.88;;
34876;SDS011;21086;44.780;17.194;2024-01-07T10:17:16;8.80;;;5.47;;
34876;SDS011;21086;44.780;17.194;2024-01-07T10:22:46;11.60;;;6.55;;
34876;SDS011;21086;44.780;17.194;2024-01-07T10:25:16;8.57;;;4.90;;
34876;SDS011;21086;44.780;17.194;2024-01-07T10:27:43;11.35;;;6.72;;
34876;SDS011;21086;44.780;17.194;2024-01-07T10:30:10;8.90;;;5.25;;
34876;SDS011;21086;44.780;17.194;2024-01-07T10:32:41;20.67;;;11.23;;
34876;SDS011;21086;44.780;17.194;2024-01-07T10:35:12;17.05;;;8.80;;
34876;SDS011;21086;44.780;17.194;2024-01-07T10:37:43;12.60;;;7.25;;
34876;SDS011;21086;44.780;17.194;2024-01-07T10:40:13;9.77;;;5.00;;
34876;SDS011;21086;44.780;17.194;2024-01-07T10:42:40;8.70;;;5.55;;
34876;SDS011;21086;44.780;17.194;2024-01-07T10:45:11;6.25;;;3.45;;
34876;SDS011;21086;44.780;17.194;2024-01-07T10:47:38;12.40;;;6.95;;
34876;SDS011;21086;44.780;17.194;2024-01-07T10:50:10;7.60;;;4.32;;
34876;SDS011;21086;44.780;17.194;2024-01-07T10:52:40;12.98;;;6.90;;
34876;SDS011;21086;44.780;17.194;2024-01-07T10:55:08;11.15;;;5.97;;
34876;SDS011;21086;44.780;17.194;2024-01-07T11:00:12;64.72;;;18.38;;
34876;SDS011;21086;44.780;17.194;2024-01-07T11:02:55;20.95;;;9.25;;
34876;SDS011;21086;44.780;17.194;2024-01-07T11:08:51;12.10;;;5.60;;
34876;SDS011;21086;44.780;17.194;2024-01-07T11:11:25;11.32;;;4.13;;
34876;SDS011;21086;44.780;17.194;2024-01-07T11:13:53;11.38;;;6.05;;
34876;SDS011;21086;44.780;17.194;2024-01-07T11:16:40;20.17;;;10.20;;
34876;SDS011;21086;44.780;17.194;2024-01-07T11:19:08;15.43;;;7.95;;
34876;SDS011;21086;44.780;17.194;2024-01-07T11:21:36;23.65;;;12.70;;
34876;SDS011;21086;44.780;17.194;2024-01-07T11:24:03;14.95;;;7.43;;
34876;SDS011;21086;44.780;17.194;2024-01-07T11:26:30;16.25;;;7.57;;
34876;SDS011;21086;44.780;17.194;2024-01-07T11:28:58;12.93;;;6.20;;
34876;SDS011;21086;44.780;17.194;2024-01-07T11:34:06;19.55;;;11.30;;
34876;SDS011;21086;44.780;17.194;2024-01-07T11:36:37;14.15;;;8.88;;
34876;SDS011;21086;44.780;17.194;2024-01-07T11:39:05;15.50;;;7.50;;
34876;SDS011;21086;44.780;17.194;2024-01-07T11:41:36;15.70;;;7.20;;
34876;SDS011;21086;44.780;17.194;2024-01-07T11:44:06;18.83;;;7.75;;
34876;SDS011;21086;44.780;17.194;2024-01-07T11:46:37;16.90;;;8.15;;
34876;SDS011;21086;44.780;17.194;2024-01-07T11:49:04;28.65;;;12.57;;
34876;SDS011;21086;44.780;17.194;2024-01-07T11:51:32;25.00;;;11.68;;
34876;SDS011;21086;44.780;17.194;2024-01-07T11:53:59;25.48;;;11.88;;
34876;SDS011;21086;44.780;17.194;2024-01-07T11:56:27;11.93;;;5.85;;
34876;SDS011;21086;44.780;17.194;2024-01-07T11:58:55;14.90;;;8.13;;
34876;SDS011;21086;44.780;17.194;2024-01-07T12:01:26;13.88;;;7.50;;
34876;SDS011;21086;44.780;17.194;2024-01-07T12:03:53;11.40;;;6.43;;
34876;SDS011;21086;44.780;17.194;2024-01-07T12:06:21;16.75;;;8.10;;
34876;SDS011;21086;44.780;17.194;2024-01-07T12:08:48;31.23;;;17.95;;
34876;SDS011;21086;44.780;17.194;2024-01-07T12:11:15;14.02;;;6.93;;
34876;SDS011;21086;44.780;17.194;2024-01-07T12:13:43;23.63;;;11.35;;
34876;SDS011;21086;44.780;17.194;2024-01-07T12:16:11;12.93;;;6.93;;
34876;SDS011;21086;44.780;17.194;2024-01-07T12:18:41;11.48;;;6.50;;
34876;SDS011;21086;44.780;17.194;2024-01-07T12:21:09;11.38;;;6.72;;
34876;SDS011;21086;44.780;17.194;2024-01-07T12:23:36;7.95;;;4.85;;
34876;SDS011;21086;44.780;17.194;2024-01-07T12:26:08;15.30;;;7.18;;
34876;SDS011;21086;44.780;17.194;2024-01-07T12:28:37;16.92;;;9.27;;
34876;SDS011;21086;44.780;17.194;2024-01-07T12:31:04;17.20;;;10.02;;
34876;SDS011;21086;44.780;17.194;2024-01-07T12:33:32;15.25;;;6.10;;
34876;SDS011;21086;44.780;17.194;2024-01-07T12:36:00;11.00;;;5.57;;
34876;SDS011;21086;44.780;17.194;2024-01-07T12:38:28;27.50;;;12.35;;
34876;SDS011;21086;44.780;17.194;2024-01-07T12:40:55;62.50;;;20.40;;
34876;SDS011;21086;44.780;17.194;2024-01-07T12:43:23;12.02;;;5.32;;
34876;SDS011;21086;44.780;17.194;2024-01-07T12:45:51;24.50;;;10.70;;
34876;SDS011;21086;44.780;17.194;2024-01-07T12:48:18;16.98;;;8.10;;
34876;SDS011;21086;44.780;17.194;2024-01-07T12:50:45;9.60;;;4.65;;
34876;SDS011;21086;44.780;17.194;2024-01-07T12:53:12;6.60;;;3.42;;
34876;SDS011;21086;44.780;17.194;2024-01-07T12:55:39;9.13;;;4.65;;
34876;SDS011;21086;44.780;17.194;2024-01-07T12:58:06;14.95;;;7.45;;
34876;SDS011;21086;44.780;17.194;2024-01-07T13:00:34;11.70;;;6.28;;
34876;SDS011;21086;44.780;17.194;2024-01-07T13:03:01;12.30;;;6.60;;
34876;SDS011;21086;44.780;17.194;2024-01-07T13:05:30;13.00;;;7.45;;
34876;SDS011;21086;44.780;17.194;2024-01-07T13:07:58;34.33;;;18.38;;
34876;SDS011;21086;44.780;17.194;2024-01-07T13:10:25;12.48;;;6.38;;
34876;SDS011;21086;44.780;17.194;2024-01-07T13:12:52;21.92;;;11.30;;
34876;SDS011;21086;44.780;17.194;2024-01-07T13:15:30;9.93;;;5.03;;
34876;SDS011;21086;44.780;17.194;2024-01-07T13:17:57;22.27;;;11.80;;
34876;SDS011;21086;44.780;17.194;2024-01-07T13:20:24;8.88;;;5.45;;
34876;SDS011;21086;44.780;17.194;2024-01-07T13:22:51;15.05;;;8.52;;
34876;SDS011;21086;44.780;17.194;2024-01-07T13:25:19;14.00;;;5.50;;
34876;SDS011;21086;44.780;17.194;2024-01-07T13:27:46;7.78;;;4.40;;
34876;SDS011;21086;44.780;17.194;2024-01-07T13:30:13;11.77;;;6.00;;
34876;SDS011;21086;44.780;17.194;2024-01-07T13:32:40;11.00;;;6.35;;
34876;SDS011;21086;44.780;17.194;2024-01-07T13:35:07;40.25;;;19.45;;
34876;SDS011;21086;44.780;17.194;2024-01-07T13:37:37;12.98;;;5.75;;
34876;SDS011;21086;44.780;17.194;2024-01-07T13:40:04;7.25;;;4.40;;
34876;SDS011;21086;44.780;17.194;2024-01-07T13:42:32;12.05;;;6.20;;
34876;SDS011;21086;44.780;17.194;2024-01-07T13:45:00;12.30;;;6.03;;
34876;SDS011;21086;44.780;17.194;2024-01-07T13:47:26;6.88;;;4.30;;
34876;SDS011;21086;44.780;17.194;2024-01-07T13:49:54;11.63;;;6.22;;
34876;SDS011;21086;44.780;17.194;2024-01-07T13:52:21;28.30;;;14.05;;
34876;SDS011;21086;44.780;17.194;2024-01-07T13:54:49;17.35;;;8.85;;
34876;SDS011;21086;44.780;17.194;2024-01-07T13:57:16;12.60;;;6.60;;
34876;SDS011;21086;44.780;17.194;2024-01-07T13:59:43;14.52;;;7.03;;
34876;SDS011;21086;44.780;17.194;2024-01-07T14:02:11;9.23;;;5.90;;
34876;SDS011;21086;44.780;17.194;2024-01-07T14:04:39;12.07;;;6.20;;
34876;SDS011;21086;44.780;17.194;2024-01-07T14:07:06;22.90;;;11.32;;
34876;SDS011;21086;44.780;17.194;2024-01-07T14:09:33;13.18;;;6.60;;
34876;SDS011;21086;44.780;17.194;2024-01-07T14:12:02;12.30;;;6.78;;
34876;SDS011;21086;44.780;17.194;2024-01-07T14:14:29;15.75;;;7.72;;
34876;SDS011;21086;44.780;17.194;2024-01-07T14:16:56;14.88;;;7.15;;
34876;SDS011;21086;44.780;17.194;2024-01-07T14:19:23;12.52;;;6.57;;
34876;SDS011;21086;44.780;17.194;2024-01-07T14:21:50;17.63;;;8.40;;
34876;SDS011;21086;44.780;17.194;2024-01-07T14:24:18;7.50;;;4.40;;
34876;SDS011;21086;44.780;17.194;2024-01-07T14:26:46;7.15;;;4.18;;
34876;SDS011;21086;44.780;17.194;2024-01-07T14:29:13;6.50;;;4.07;;
34876;SDS011;21086;44.780;17.194;2024-01-07T14:31:44;11.05;;;5.68;;
34876;SDS011;21086;44.780;17.194;2024-01-07T14:34:13;12.20;;;6.28;;
34876;SDS011;21086;44.780;17.194;2024-01-07T14:36:40;10.13;;;6.63;;
34876;SDS011;21086;44.780;17.194;2024-01-07T14:39:11;9.50;;;5.45;;
34876;SDS011;21086;44.780;17.194;2024-01-07T14:41:40;14.23;;;7.38;;
34876;SDS011;21086;44.780;17.194;2024-01-07T14:44:08;11.75;;;7.32;;
34876;SDS011;21086;44.780;17.194;2024-01-07T14:46:38;10.40;;;5.88;;
34876;SDS011;21086;44.780;17.194;2024-01-07T14:49:06;14.63;;;7.90;;
34876;SDS011;21086;44.780;17.194;2024-01-07T14:51:34;13.07;;;6.57;;
34876;SDS011;21086;44.780;17.194;2024-01-07T14:54:01;11.57;;;6.15;;
34876;SDS011;21086;44.780;17.194;2024-01-07T14:56:29;11.27;;;6.10;;
34876;SDS011;21086;44.780;17.194;2024-01-07T14:58:56;10.75;;;6.18;;
34876;SDS011;21086;44.780;17.194;2024-01-07T15:01:23;13.85;;;7.30;;
34876;SDS011;21086;44.780;17.194;2024-01-07T15:03:51;13.90;;;6.88;;
34876;SDS011;21086;44.780;17.194;2024-01-07T15:06:18;13.70;;;7.45;;
34876;SDS011;21086;44.780;17.194;2024-01-07T15:08:45;24.27;;;10.20;;